Terminal Aerodrome Forecast
Issued by NWS

Home | Current Version | Previous Version | Graphics & Text | Print | Product List | Glossary On
Versions: 1 2 3 4 5 6 7 8 9 10 11 12 13 14 15 16
000
FTUS43 KMPX 200800 AAA
TAFRWF
TAF AMD
KRWF 200811Z 2008/2106 18010KT 5SM BR OVC012
     FM201100 18007KT 3SM BR OVC007
     FM201500 17008KT 5SM BR OVC008
     FM202000 18009KT P6SM OVC015
     FM210000 15009KT P6SM BKN015 OVC025=

USA.gov is the U.S. government's official web portal to all federal, state and local government web resources and services.